Pallaskenry, Ireland
Current Conditions -  °F | °C
As of 11:30 PM on Tuesday 21 Oct 2014 (Local Time) from EINN Reporting Station
Scattered Clouds Scattered Clouds  
Wind Chill: 50°   Ceiling: Unl
Heat Index: 50°   Visibility: 6mi
Dew Point: 37°   Wind: 9mph
Humidity: 62%   Direction: 260°W
Pressure: 30.3"   Gusts: NA
Location:  52.65°N, 8.87°W
Report Text: EINN 212330Z 26008KT 9999 FEW036 SCT042 10/03 Q1026 NOSIG
Loading
Personal Weather Stations






























Interactive Weather Map
Tropical Storm Tracking
New forecast layout! Learn more

10-Day Weather Forecast

Advertisements
Track Severe Weather on mobile